createdAt,value
2017-06-12T00:00:40.278Z,977.24
2017-06-12T00:01:42.660Z,977.24
2017-06-12T00:02:45.032Z,977.22
2017-06-12T00:03:47.403Z,977.20
2017-06-12T00:04:50.399Z,977.20
2017-06-12T00:05:52.784Z,977.22
2017-06-12T00:06:55.164Z,977.24
2017-06-12T00:07:57.521Z,977.24
2017-06-12T00:08:59.932Z,977.23
2017-06-12T00:10:02.982Z,977.24
2017-06-12T00:11:05.352Z,977.24
2017-06-12T00:12:07.730Z,977.29
2017-06-12T00:13:10.113Z,977.27
2017-06-12T00:14:12.496Z,977.29
2017-06-12T00:15:15.472Z,977.30
2017-06-12T00:16:17.862Z,977.30
2017-06-12T00:17:20.254Z,977.30
2017-06-12T00:18:22.625Z,977.30
2017-06-12T00:19:24.984Z,977.33
2017-06-12T00:20:27.939Z,977.38
2017-06-12T00:21:30.315Z,977.34
2017-06-12T00:22:32.681Z,977.35
2017-06-12T00:23:35.051Z,977.33
2017-06-12T00:24:37.440Z,977.37
2017-06-12T00:25:40.612Z,977.35
2017-06-12T00:26:42.976Z,977.37
2017-06-12T00:27:45.338Z,977.36
2017-06-12T00:28:47.694Z,977.38
2017-06-12T00:29:50.096Z,977.41
2017-06-12T00:30:53.188Z,977.44
2017-06-12T00:31:55.558Z,977.48
2017-06-12T00:32:57.937Z,977.50
2017-06-12T00:34:00.319Z,977.49
2017-06-12T00:35:02.698Z,977.56
2017-06-12T00:36:05.772Z,977.53
2017-06-12T00:37:08.178Z,977.53
2017-06-12T00:38:10.549Z,977.57
2017-06-12T00:39:12.943Z,977.62
2017-06-12T00:40:15.304Z,977.60
2017-06-12T00:41:18.343Z,977.64
2017-06-12T00:42:20.698Z,977.61
2017-06-12T00:43:23.063Z,977.59
2017-06-12T00:44:25.435Z,977.60
2017-06-12T00:45:27.805Z,977.63
2017-06-12T00:46:30.881Z,977.62
2017-06-12T00:47:33.244Z,977.59
2017-06-12T00:48:35.654Z,977.61
2017-06-12T00:49:38.080Z,977.59
2017-06-12T00:50:40.462Z,977.58
2017-06-12T00:51:43.574Z,977.58
2017-06-12T00:52:45.948Z,977.58
2017-06-12T00:53:48.309Z,977.59
2017-06-12T00:54:50.674Z,977.52
2017-06-12T00:55:53.070Z,977.56
2017-06-12T00:56:56.184Z,977.56
2017-06-12T00:57:58.559Z,977.60
2017-06-12T00:59:00.954Z,977.61
2017-06-12T01:00:03.307Z,977.63
2017-06-12T01:01:05.686Z,977.64
2017-06-12T01:02:08.889Z,977.64
2017-06-12T01:03:11.274Z,977.66
2017-06-12T01:04:13.663Z,977.67
2017-06-12T01:05:16.016Z,977.64
2017-06-12T01:06:18.396Z,977.67
2017-06-12T01:07:21.736Z,977.66
2017-06-12T01:08:24.104Z,977.69
2017-06-12T01:09:26.676Z,977.71
2017-06-12T01:10:29.051Z,977.69
2017-06-12T01:11:31.425Z,977.68
2017-06-12T01:12:34.563Z,977.69
2017-06-12T01:13:36.930Z,977.73
2017-06-12T01:14:39.338Z,977.72
2017-06-12T01:15:41.708Z,977.73
2017-06-12T01:16:44.113Z,977.74
2017-06-12T01:17:47.167Z,977.72
2017-06-12T01:18:49.630Z,977.78
2017-06-12T01:19:52.013Z,977.77
2017-06-12T01:20:54.396Z,977.73
2017-06-12T01:21:56.791Z,977.74
2017-06-12T01:23:00.075Z,977.77
2017-06-12T01:24:02.476Z,977.82
2017-06-12T01:25:04.911Z,977.79
2017-06-12T01:26:07.282Z,977.84
2017-06-12T01:27:09.660Z,977.83
2017-06-12T01:28:12.843Z,977.88
2017-06-12T01:29:15.275Z,977.80
2017-06-12T01:30:17.731Z,977.78
2017-06-12T01:31:20.143Z,977.79
2017-06-12T01:32:22.546Z,977.80
2017-06-12T01:33:25.939Z,977.78
2017-06-12T01:34:28.296Z,977.80
2017-06-12T01:35:30.894Z,977.78
2017-06-12T01:36:33.356Z,977.82
2017-06-12T01:37:35.784Z,977.84
2017-06-12T01:38:38.909Z,977.81
2017-06-12T01:39:41.363Z,977.84
2017-06-12T01:40:43.804Z,977.90
2017-06-12T01:41:46.197Z,977.88
2017-06-12T01:42:48.586Z,977.87
2017-06-12T01:43:51.696Z,977.87
2017-06-12T01:44:54.056Z,977.92
2017-06-12T01:45:56.425Z,977.92
2017-06-12T01:46:58.809Z,977.91
2017-06-12T01:48:01.225Z,977.96
2017-06-12T01:49:04.400Z,978.01
2017-06-12T01:50:06.819Z,978.03
2017-06-12T01:51:09.244Z,978.03
2017-06-12T01:52:11.668Z,978.04
2017-06-12T01:53:14.130Z,978.08
2017-06-12T01:54:17.319Z,978.06
2017-06-12T01:55:19.971Z,978.07
2017-06-12T01:56:22.429Z,978.10
2017-06-12T01:57:24.876Z,978.12
2017-06-12T01:58:27.337Z,978.11
2017-06-12T01:59:30.528Z,978.13
2017-06-12T02:00:33.136Z,978.09
2017-06-12T02:01:35.581Z,978.09
2017-06-12T02:02:38.016Z,978.08
2017-06-12T02:03:40.457Z,978.12
2017-06-12T02:04:43.638Z,978.15
2017-06-12T02:05:46.083Z,978.18
2017-06-12T02:06:48.516Z,978.20
2017-06-12T02:07:50.949Z,978.22
2017-06-12T02:08:53.590Z,978.26
2017-06-12T02:09:56.831Z,978.27
2017-06-12T02:10:59.230Z,978.29
2017-06-12T02:12:01.716Z,978.31
2017-06-12T02:13:04.129Z,978.33
2017-06-12T02:14:06.576Z,978.33
2017-06-12T02:15:09.775Z,978.34
2017-06-12T02:16:12.204Z,978.36
2017-06-12T02:17:14.648Z,978.35
2017-06-12T02:18:17.094Z,978.38
2017-06-12T02:19:19.522Z,978.41
2017-06-12T02:20:22.519Z,978.37
2017-06-12T02:21:24.971Z,978.42
2017-06-12T02:22:27.369Z,978.39
2017-06-12T02:23:29.853Z,978.46
2017-06-12T02:24:32.269Z,978.48
2017-06-12T02:25:35.350Z,978.52
2017-06-12T02:26:37.792Z,978.52
2017-06-12T02:27:40.427Z,978.50
2017-06-12T02:28:42.845Z,978.51
2017-06-12T02:29:45.270Z,978.49
2017-06-12T02:30:48.286Z,978.51
2017-06-12T02:31:50.749Z,978.52
2017-06-12T02:32:53.185Z,978.54
2017-06-12T02:33:55.622Z,978.58
2017-06-12T02:34:58.056Z,978.56
2017-06-12T02:36:01.250Z,978.59
2017-06-12T02:37:03.692Z,978.59
2017-06-12T02:38:06.116Z,978.58
2017-06-12T02:39:08.551Z,978.59
2017-06-12T02:40:11.004Z,978.64
2017-06-12T02:41:13.943Z,978.60
2017-06-12T02:42:16.353Z,978.62
2017-06-12T02:43:18.786Z,978.64
2017-06-12T02:44:21.225Z,978.68
2017-06-12T02:45:23.659Z,978.68
2017-06-12T02:46:26.862Z,978.65
2017-06-12T02:47:29.306Z,978.68
2017-06-12T02:48:31.706Z,978.70
2017-06-12T02:49:34.049Z,978.73
2017-06-12T02:50:36.426Z,978.74
2017-06-12T02:51:41.315Z,978.73
2017-06-12T02:52:43.689Z,978.80
2017-06-12T02:53:46.060Z,978.80
2017-06-12T02:54:48.440Z,978.84
2017-06-12T02:55:50.824Z,978.81
2017-06-12T02:56:53.726Z,978.84
2017-06-12T02:57:56.301Z,978.78
2017-06-12T02:58:58.896Z,978.80
2017-06-12T03:00:01.262Z,978.81
2017-06-12T03:01:03.643Z,978.84
2017-06-12T03:02:06.627Z,978.82
2017-06-12T03:03:09.013Z,978.80
2017-06-12T03:04:11.373Z,978.84
2017-06-12T03:05:13.757Z,978.83
2017-06-12T03:06:16.131Z,978.83
2017-06-12T03:07:19.286Z,978.81
2017-06-12T03:08:21.680Z,978.80
2017-06-12T03:09:24.050Z,978.79
2017-06-12T03:10:26.440Z,978.82
2017-06-12T03:11:28.862Z,978.81
2017-06-12T03:12:31.844Z,978.83
2017-06-12T03:13:34.226Z,978.82
2017-06-12T03:14:36.605Z,978.85
2017-06-12T03:15:38.970Z,978.84
2017-06-12T03:16:41.360Z,978.86
2017-06-12T03:17:44.495Z,978.87
2017-06-12T03:18:46.863Z,978.88
2017-06-12T03:19:49.245Z,978.86
2017-06-12T03:20:51.622Z,978.83
2017-06-12T03:21:53.991Z,978.89
2017-06-12T03:22:57.070Z,978.87
2017-06-12T03:23:59.441Z,978.88
2017-06-12T03:25:01.806Z,978.85
2017-06-12T03:26:04.184Z,978.85
2017-06-12T03:27:06.553Z,978.83
2017-06-12T03:28:09.632Z,978.86
2017-06-12T03:29:11.985Z,978.86
2017-06-12T03:30:14.344Z,978.88
2017-06-12T03:31:16.725Z,978.84
2017-06-12T03:32:19.081Z,978.86
2017-06-12T03:33:22.145Z,978.83
2017-06-12T03:34:24.514Z,978.87
2017-06-12T03:35:26.869Z,978.82
2017-06-12T03:36:29.261Z,978.88
2017-06-12T03:37:31.654Z,978.81
2017-06-12T03:38:34.569Z,978.84
2017-06-12T03:39:36.928Z,978.83
2017-06-12T03:40:39.310Z,978.85
2017-06-12T03:41:41.675Z,978.84
2017-06-12T03:42:44.046Z,978.87
2017-06-12T03:43:47.025Z,978.89
2017-06-12T03:44:49.411Z,978.90
2017-06-12T03:45:51.764Z,978.91
2017-06-12T03:46:54.141Z,978.93
2017-06-12T03:47:56.523Z,978.96
2017-06-12T03:48:59.482Z,978.94
2017-06-12T03:50:01.838Z,978.93
2017-06-12T03:51:04.211Z,978.94
2017-06-12T03:52:06.603Z,978.90
2017-06-12T03:53:08.984Z,978.95
2017-06-12T03:54:12.120Z,978.93
2017-06-12T03:55:14.487Z,978.90
2017-06-12T03:56:16.877Z,978.92
2017-06-12T03:57:19.257Z,978.96
2017-06-12T03:58:21.600Z,978.95
2017-06-12T03:59:24.720Z,978.99
2017-06-12T04:00:27.088Z,978.97
2017-06-12T04:01:29.464Z,978.96
2017-06-12T04:02:31.819Z,978.98
2017-06-12T04:03:34.175Z,978.94
2017-06-12T04:04:37.250Z,978.99
2017-06-12T04:05:39.613Z,979.02
2017-06-12T04:06:42.176Z,979.02
2017-06-12T04:07:44.560Z,979.03
2017-06-12T04:08:46.916Z,979.02
2017-06-12T04:09:49.870Z,978.99
2017-06-12T04:10:52.266Z,978.98
2017-06-12T04:11:54.625Z,978.97
2017-06-12T04:12:56.996Z,978.97
2017-06-12T04:13:59.384Z,978.99
2017-06-12T04:15:02.327Z,978.96
2017-06-12T04:16:04.711Z,979.00
2017-06-12T04:17:07.079Z,978.99
2017-06-12T04:18:09.435Z,979.00
2017-06-12T04:19:11.793Z,979.03
2017-06-12T04:20:14.780Z,979.05
2017-06-12T04:21:17.159Z,979.01
2017-06-12T04:22:19.512Z,979.04
2017-06-12T04:23:21.893Z,979.03
2017-06-12T04:24:24.251Z,979.01
2017-06-12T04:25:27.231Z,979.08
2017-06-12T04:26:29.572Z,979.04
2017-06-12T04:27:31.950Z,979.04
2017-06-12T04:28:34.330Z,979.02
2017-06-12T04:29:36.890Z,979.03
2017-06-12T04:30:39.836Z,979.04
2017-06-12T04:31:42.219Z,979.10
2017-06-12T04:32:44.605Z,979.10
2017-06-12T04:33:46.972Z,979.07
2017-06-12T04:34:49.331Z,979.10
2017-06-12T04:35:52.250Z,979.08
2017-06-12T04:36:54.638Z,979.07
2017-06-12T04:37:56.992Z,979.09
2017-06-12T04:38:59.360Z,979.09
2017-06-12T04:40:01.728Z,979.06
2017-06-12T04:41:04.844Z,979.03
2017-06-12T04:42:07.214Z,979.02
2017-06-12T04:43:09.568Z,979.02
2017-06-12T04:44:11.923Z,979.02
2017-06-12T04:45:14.282Z,979.05
2017-06-12T04:46:17.393Z,979.05
2017-06-12T04:47:19.751Z,979.08
2017-06-12T04:48:22.109Z,979.08
2017-06-12T04:49:24.469Z,979.09
2017-06-12T04:50:26.850Z,979.10
2017-06-12T04:51:29.919Z,979.10
2017-06-12T04:52:32.289Z,979.15
2017-06-12T04:53:34.847Z,979.19
2017-06-12T04:54:37.203Z,979.18
2017-06-12T04:55:39.563Z,979.20
2017-06-12T04:56:42.524Z,979.24
2017-06-12T04:57:44.899Z,979.24
2017-06-12T04:58:47.285Z,979.19
2017-06-12T04:59:49.630Z,979.22
2017-06-12T05:00:51.991Z,979.19
2017-06-12T05:01:54.980Z,979.21
2017-06-12T05:02:57.368Z,979.20
2017-06-12T05:03:59.746Z,979.21
2017-06-12T05:05:02.139Z,979.17
2017-06-12T05:06:04.496Z,979.20
2017-06-12T05:07:07.473Z,979.18
2017-06-12T05:08:09.843Z,979.16
2017-06-12T05:09:12.228Z,979.21
2017-06-12T05:10:14.607Z,979.15
2017-06-12T05:11:16.974Z,979.20
2017-06-12T05:12:20.055Z,979.25
2017-06-12T05:13:22.432Z,979.26
2017-06-12T05:14:24.797Z,979.26
2017-06-12T05:15:27.186Z,979.33
2017-06-12T05:16:29.534Z,979.32
2017-06-12T05:17:32.652Z,979.32
2017-06-12T05:18:35.005Z,979.29
2017-06-12T05:19:37.376Z,979.30
2017-06-12T05:20:39.741Z,979.33
2017-06-12T05:21:42.106Z,979.33
2017-06-12T05:22:45.180Z,979.36
2017-06-12T05:23:47.529Z,979.33
2017-06-12T05:24:50.107Z,979.31
2017-06-12T05:25:52.488Z,979.31
2017-06-12T05:26:54.875Z,979.31
2017-06-12T05:27:57.990Z,979.34
2017-06-12T05:29:00.346Z,979.32
2017-06-12T05:30:02.705Z,979.32
2017-06-12T05:31:05.073Z,979.32
2017-06-12T05:32:07.453Z,979.32
2017-06-12T05:33:10.519Z,979.30
2017-06-12T05:34:12.886Z,979.25
2017-06-12T05:35:15.252Z,979.25
2017-06-12T05:36:17.613Z,979.23
2017-06-12T05:37:19.965Z,979.18
2017-06-12T05:38:22.924Z,979.16
2017-06-12T05:39:25.280Z,979.17
2017-06-12T05:40:27.639Z,979.14
2017-06-12T05:41:30.004Z,979.15
2017-06-12T05:42:32.370Z,979.14
2017-06-12T05:43:35.328Z,979.15
2017-06-12T05:44:37.680Z,979.14
2017-06-12T05:45:40.052Z,979.13
2017-06-12T05:46:42.400Z,979.11
2017-06-12T05:47:44.762Z,979.08
2017-06-12T05:48:47.737Z,979.10
2017-06-12T05:49:50.106Z,979.03
2017-06-12T05:50:52.460Z,979.02
2017-06-12T05:51:54.821Z,978.96
2017-06-12T05:52:57.179Z,978.92
2017-06-12T05:54:00.290Z,978.90
2017-06-12T05:55:02.643Z,978.91
2017-06-12T05:56:05.003Z,978.89
2017-06-12T05:57:07.351Z,978.90
2017-06-12T05:58:09.717Z,978.88
2017-06-12T05:59:12.971Z,978.87
2017-06-12T06:00:15.329Z,978.87
2017-06-12T06:01:17.689Z,978.83
2017-06-12T06:02:20.043Z,978.81
2017-06-12T06:03:22.424Z,978.80
2017-06-12T06:04:25.360Z,978.81
2017-06-12T06:05:27.712Z,978.77
2017-06-12T06:06:30.071Z,978.76
2017-06-12T06:07:32.430Z,978.79
2017-06-12T06:08:34.800Z,978.77
2017-06-12T06:09:37.856Z,978.79
2017-06-12T06:10:40.206Z,978.82
2017-06-12T06:11:42.566Z,978.77
2017-06-12T06:12:44.920Z,978.73
2017-06-12T06:13:47.277Z,978.74
2017-06-12T06:14:50.332Z,978.69
2017-06-12T06:15:52.695Z,978.76
2017-06-12T06:16:55.040Z,978.68
2017-06-12T06:17:57.397Z,978.65
2017-06-12T06:18:59.750Z,978.65
2017-06-12T06:20:02.802Z,978.63
2017-06-12T06:21:05.172Z,978.62
2017-06-12T06:22:07.519Z,978.61
2017-06-12T06:23:09.893Z,978.58
2017-06-12T06:24:12.245Z,978.61
2017-06-12T06:25:15.211Z,978.57
2017-06-12T06:26:17.567Z,978.58
2017-06-12T06:27:19.922Z,978.63
2017-06-12T06:28:22.276Z,978.58
2017-06-12T06:29:24.627Z,978.60
2017-06-12T06:30:27.579Z,978.60
2017-06-12T06:31:29.932Z,978.59
2017-06-12T06:32:32.296Z,978.57
2017-06-12T06:33:34.648Z,978.59
2017-06-12T06:34:36.998Z,978.57
2017-06-12T06:35:39.902Z,978.55
2017-06-12T06:36:42.268Z,978.55
2017-06-12T06:37:44.627Z,978.51
2017-06-12T06:38:46.983Z,978.47
2017-06-12T06:39:49.332Z,978.45
2017-06-12T06:40:52.546Z,978.48
2017-06-12T06:41:54.907Z,978.45
2017-06-12T06:42:57.255Z,978.41
2017-06-12T06:43:59.614Z,978.42
2017-06-12T06:45:01.968Z,978.39
2017-06-12T06:46:04.922Z,978.40
2017-06-12T06:47:07.277Z,978.39
2017-06-12T06:48:09.634Z,978.39
2017-06-12T06:49:11.990Z,978.34
2017-06-12T06:50:14.347Z,978.33
2017-06-12T06:51:17.296Z,978.32
2017-06-12T06:52:19.654Z,978.29
2017-06-12T06:53:22.005Z,978.32
2017-06-12T06:54:24.364Z,978.28
2017-06-12T06:55:26.711Z,978.27
2017-06-12T06:56:29.763Z,978.27
2017-06-12T06:57:32.125Z,978.26
2017-06-12T06:58:34.480Z,978.22
2017-06-12T06:59:36.833Z,978.21
2017-06-12T07:00:39.185Z,978.18
2017-06-12T07:01:42.255Z,978.17
2017-06-12T07:02:44.602Z,978.12
2017-06-12T07:03:46.957Z,978.12
2017-06-12T07:04:49.306Z,978.09
2017-06-12T07:05:51.664Z,978.09
2017-06-12T07:06:54.721Z,978.06
2017-06-12T07:07:57.079Z,978.04
2017-06-12T07:08:59.432Z,978.07
2017-06-12T07:10:01.980Z,978.05
2017-06-12T07:11:04.355Z,978.08
2017-06-12T07:12:07.246Z,978.07
2017-06-12T07:13:09.611Z,978.10
2017-06-12T07:14:11.963Z,978.08
2017-06-12T07:15:14.321Z,978.08
2017-06-12T07:16:16.681Z,978.08
2017-06-12T07:17:19.728Z,978.06
2017-06-12T07:18:22.084Z,978.04
2017-06-12T07:19:24.439Z,978.03
2017-06-12T07:20:26.795Z,978.01
2017-06-12T07:21:29.143Z,978.01
2017-06-12T07:22:32.050Z,978.08
2017-06-12T07:23:34.410Z,978.00
2017-06-12T07:24:36.756Z,978.03
2017-06-12T07:25:39.115Z,978.02
2017-06-12T07:26:41.466Z,978.03
2017-06-12T07:27:44.383Z,978.03
2017-06-12T07:28:46.733Z,978.06
2017-06-12T07:29:49.078Z,978.05
2017-06-12T07:30:51.430Z,978.04
2017-06-12T07:31:53.784Z,978.04
2017-06-12T07:32:56.839Z,978.03
2017-06-12T07:33:59.187Z,977.98
2017-06-12T07:35:01.737Z,978.00
2017-06-12T07:36:04.086Z,977.99
2017-06-12T07:37:06.448Z,977.96
2017-06-12T07:38:09.507Z,977.94
2017-06-12T07:39:11.865Z,977.95
2017-06-12T07:40:14.217Z,977.91
2017-06-12T07:41:16.578Z,977.90
2017-06-12T07:42:18.925Z,977.85
2017-06-12T07:43:21.991Z,977.82
2017-06-12T07:44:24.348Z,977.82
2017-06-12T07:45:26.691Z,977.79
2017-06-12T07:46:29.037Z,977.79
2017-06-12T07:47:31.403Z,977.77
2017-06-12T07:48:34.353Z,977.75
2017-06-12T07:49:36.705Z,977.74
2017-06-12T07:50:39.056Z,977.71
2017-06-12T07:51:41.415Z,977.71
2017-06-12T07:52:43.778Z,977.68
2017-06-12T07:53:46.736Z,977.67
2017-06-12T07:54:49.090Z,977.68
2017-06-12T07:55:51.446Z,977.66
2017-06-12T07:56:53.790Z,977.64
2017-06-12T07:57:56.152Z,977.63
2017-06-12T07:58:59.112Z,977.62
2017-06-12T08:00:01.477Z,977.60
2017-06-12T08:01:03.828Z,977.52
2017-06-12T08:02:06.185Z,977.57
2017-06-12T08:03:08.533Z,977.52
2017-06-12T08:04:11.497Z,977.55
2017-06-12T08:05:13.863Z,977.54
2017-06-12T08:06:16.217Z,977.55
2017-06-12T08:07:18.570Z,977.53
2017-06-12T08:08:20.936Z,977.51
2017-06-12T08:09:23.995Z,977.54
2017-06-12T08:10:26.340Z,977.57
2017-06-12T08:11:28.701Z,977.59
2017-06-12T08:12:31.054Z,977.59
2017-06-12T08:13:33.410Z,977.57
2017-06-12T08:14:36.475Z,977.56
2017-06-12T08:15:38.824Z,977.53
2017-06-12T08:16:41.181Z,977.52
2017-06-12T08:17:43.524Z,977.51
2017-06-12T08:18:45.883Z,977.48
2017-06-12T08:19:49.292Z,977.49
2017-06-12T08:20:51.651Z,977.53
2017-06-12T08:21:54.010Z,977.47
2017-06-12T08:22:56.365Z,977.49
2017-06-12T08:23:58.725Z,977.46
2017-06-12T08:25:02.181Z,977.47
2017-06-12T08:26:04.527Z,977.45
2017-06-12T08:27:06.890Z,977.39
2017-06-12T08:28:09.247Z,977.43
2017-06-12T08:29:11.599Z,977.39
2017-06-12T08:30:14.651Z,977.34
2017-06-12T08:31:17.015Z,977.37
2017-06-12T08:32:19.370Z,977.37
2017-06-12T08:33:21.731Z,977.36
2017-06-12T08:34:24.080Z,977.37
2017-06-12T08:35:27.138Z,977.38
2017-06-12T08:36:29.506Z,977.34
2017-06-12T08:37:31.862Z,977.35
2017-06-12T08:38:34.222Z,977.34
2017-06-12T08:39:36.577Z,977.36
2017-06-12T08:40:39.624Z,977.38
2017-06-12T08:41:41.975Z,977.34
2017-06-12T08:42:44.333Z,977.34
2017-06-12T08:43:46.689Z,977.38
2017-06-12T08:44:49.046Z,977.33
2017-06-12T08:45:52.097Z,977.29
2017-06-12T08:46:54.454Z,977.33
2017-06-12T08:47:56.816Z,977.30
2017-06-12T08:48:59.164Z,977.28
2017-06-12T08:50:01.517Z,977.29
2017-06-12T08:51:04.576Z,977.26
2017-06-12T08:52:06.934Z,977.28
2017-06-12T08:53:09.284Z,977.24
2017-06-12T08:54:11.649Z,977.20
2017-06-12T08:55:14.001Z,977.19
2017-06-12T08:56:16.915Z,977.20
2017-06-12T08:57:19.280Z,977.22
2017-06-12T08:58:21.646Z,977.20
2017-06-12T08:59:24.001Z,977.24
2017-06-12T09:00:26.346Z,977.23
2017-06-12T09:01:29.404Z,977.21
2017-06-12T09:02:31.761Z,977.25
2017-06-12T09:03:34.114Z,977.28
2017-06-12T09:04:36.465Z,977.29
2017-06-12T09:05:38.822Z,977.29
2017-06-12T09:06:42.134Z,977.30
2017-06-12T09:07:44.487Z,977.32
2017-06-12T09:08:46.839Z,977.31
2017-06-12T09:09:49.209Z,977.33
2017-06-12T09:10:51.552Z,977.29
2017-06-12T09:11:55.157Z,977.26
2017-06-12T09:12:57.511Z,977.25
2017-06-12T09:13:59.868Z,977.25
2017-06-12T09:15:02.227Z,977.25
2017-06-12T09:16:04.581Z,977.19
2017-06-12T09:17:07.633Z,977.23
2017-06-12T09:18:09.997Z,977.18
2017-06-12T09:19:12.344Z,977.14
2017-06-12T09:20:14.703Z,977.13
2017-06-12T09:21:17.055Z,977.11
2017-06-12T09:22:20.017Z,977.10
2017-06-12T09:23:22.366Z,977.06
2017-06-12T09:24:24.712Z,977.08
2017-06-12T09:25:27.071Z,977.08
2017-06-12T09:26:29.430Z,977.04
2017-06-12T09:27:32.491Z,977.07
2017-06-12T09:28:34.838Z,977.04
2017-06-12T09:29:37.205Z,977.06
2017-06-12T09:30:39.547Z,977.04
2017-06-12T09:31:41.905Z,977.05
2017-06-12T09:32:44.967Z,977.00
2017-06-12T09:33:47.322Z,976.99
2017-06-12T09:34:49.679Z,976.99
2017-06-12T09:35:52.031Z,977.02
2017-06-12T09:36:54.382Z,977.00
2017-06-12T09:37:57.490Z,976.99
2017-06-12T09:38:59.838Z,976.97
2017-06-12T09:40:02.192Z,976.97
2017-06-12T09:41:04.546Z,976.92
2017-06-12T09:42:06.898Z,976.93
2017-06-12T09:43:09.952Z,976.90
2017-06-12T09:44:12.312Z,976.89
2017-06-12T09:45:14.665Z,976.86
2017-06-12T09:46:17.018Z,976.85
2017-06-12T09:47:19.377Z,976.85
2017-06-12T09:48:22.428Z,976.82
2017-06-12T09:49:24.782Z,976.84
2017-06-12T09:50:27.148Z,976.85
2017-06-12T09:51:29.506Z,976.83
2017-06-12T09:52:31.857Z,976.81
2017-06-12T09:53:34.910Z,976.83
2017-06-12T09:54:37.272Z,976.80
2017-06-12T09:55:39.644Z,976.80
2017-06-12T09:56:41.994Z,976.79
2017-06-12T09:57:44.355Z,976.75
2017-06-12T09:58:47.280Z,976.77
2017-06-12T09:59:49.635Z,976.76
2017-06-12T10:00:51.985Z,976.74
2017-06-12T10:01:54.346Z,976.75
2017-06-12T10:02:56.713Z,976.82
2017-06-12T10:03:59.615Z,976.84
2017-06-12T10:05:01.967Z,976.86
2017-06-12T10:06:04.320Z,976.89
2017-06-12T10:07:06.669Z,976.93
2017-06-12T10:08:09.025Z,976.94
2017-06-12T10:09:12.077Z,976.93
2017-06-12T10:10:14.430Z,976.95
2017-06-12T10:11:16.784Z,976.92
2017-06-12T10:12:19.150Z,976.93
2017-06-12T10:13:21.507Z,976.96
2017-06-12T10:14:24.408Z,976.97
2017-06-12T10:15:26.765Z,976.93
2017-06-12T10:16:29.128Z,976.93
2017-06-12T10:17:31.476Z,976.89
2017-06-12T10:18:33.826Z,976.89
2017-06-12T10:19:36.882Z,976.88
2017-06-12T10:20:39.234Z,976.88
2017-06-12T10:21:41.594Z,976.93
2017-06-12T10:22:43.945Z,976.94
2017-06-12T10:23:46.301Z,976.97
2017-06-12T10:24:49.356Z,977.00
2017-06-12T10:25:51.712Z,977.02
2017-06-12T10:26:54.074Z,976.99
2017-06-12T10:27:56.422Z,977.01
2017-06-12T10:28:58.784Z,976.95
2017-06-12T10:30:01.735Z,976.98
2017-06-12T10:31:04.090Z,976.98
2017-06-12T10:32:06.451Z,976.97
2017-06-12T10:33:08.804Z,977.04
2017-06-12T10:34:11.161Z,977.05
2017-06-12T10:35:14.081Z,977.05
2017-06-12T10:36:16.431Z,977.09
2017-06-12T10:37:18.793Z,977.12
2017-06-12T10:38:21.136Z,977.13
2017-06-12T10:39:23.497Z,977.15
2017-06-12T10:40:26.552Z,977.16
2017-06-12T10:41:28.908Z,977.16
2017-06-12T10:42:31.274Z,977.15
2017-06-12T10:43:33.619Z,977.21
2017-06-12T10:44:35.978Z,977.20
2017-06-12T10:45:39.029Z,977.20
2017-06-12T10:46:41.397Z,977.20
2017-06-12T10:47:43.752Z,977.24
2017-06-12T10:48:46.097Z,977.28
2017-06-12T10:49:48.472Z,977.25
2017-06-12T10:50:51.416Z,977.29
2017-06-12T10:51:53.775Z,977.27
2017-06-12T10:52:56.128Z,977.26
2017-06-12T10:53:58.481Z,977.25
2017-06-12T10:55:00.842Z,977.27
2017-06-12T10:56:03.893Z,977.25
2017-06-12T10:57:06.253Z,977.25
2017-06-12T10:58:08.610Z,977.23
2017-06-12T10:59:10.968Z,977.23
2017-06-12T11:00:13.329Z,977.25
2017-06-12T11:01:16.286Z,977.24
2017-06-12T11:03:01.847Z,977.23
2017-06-12T11:04:04.210Z,977.24
2017-06-12T11:05:06.561Z,977.28
2017-06-12T11:06:08.918Z,977.32
2017-06-12T11:07:11.971Z,977.32
2017-06-12T11:08:14.336Z,977.34
2017-06-12T11:09:16.690Z,977.38
2017-06-12T11:10:19.048Z,977.36
2017-06-12T11:11:21.406Z,977.38
2017-06-12T11:12:24.317Z,977.37
2017-06-12T11:13:26.666Z,977.39
2017-06-12T11:14:29.024Z,977.39
2017-06-12T11:15:31.392Z,977.39
2017-06-12T11:16:33.738Z,977.42
2017-06-12T11:17:36.640Z,977.43
2017-06-12T11:18:38.998Z,977.41
2017-06-12T11:19:41.360Z,977.40
2017-06-12T11:20:43.715Z,977.43
2017-06-12T11:21:46.061Z,977.38
2017-06-12T11:22:49.013Z,977.40
2017-06-12T11:23:51.377Z,977.38
2017-06-12T11:24:53.722Z,977.39
2017-06-12T11:25:56.085Z,977.40
2017-06-12T11:26:58.455Z,977.38
2017-06-12T11:28:01.364Z,977.39
2017-06-12T11:29:03.720Z,977.40
2017-06-12T11:30:06.066Z,977.39
2017-06-12T11:31:08.416Z,977.38
2017-06-12T11:32:10.776Z,977.38
2017-06-12T11:33:13.685Z,977.40
2017-06-12T11:34:16.032Z,977.43
2017-06-12T11:35:18.399Z,977.42
2017-06-12T11:36:20.758Z,977.39
2017-06-12T11:37:23.101Z,977.41
2017-06-12T11:38:26.162Z,977.39
2017-06-12T11:39:28.515Z,977.39
2017-06-12T11:40:30.874Z,977.42
2017-06-12T11:41:33.232Z,977.40
2017-06-12T11:42:35.594Z,977.37
2017-06-12T11:43:38.651Z,977.44
2017-06-12T11:44:41.012Z,977.42
2017-06-12T11:45:43.369Z,977.42
2017-06-12T11:46:45.716Z,977.43
2017-06-12T11:47:48.082Z,977.42
2017-06-12T11:48:50.992Z,977.40
2017-06-12T11:49:53.355Z,977.40
2017-06-12T11:50:55.713Z,977.36
2017-06-12T11:51:58.074Z,977.42
2017-06-12T11:53:00.435Z,977.43
2017-06-12T11:54:03.341Z,977.47
2017-06-12T11:55:05.701Z,977.47
2017-06-12T11:56:08.058Z,977.47
2017-06-12T11:57:10.425Z,977.47
2017-06-12T11:58:12.779Z,977.46
2017-06-12T11:59:15.840Z,977.48
2017-06-12T12:00:18.203Z,977.50
2017-06-12T12:01:20.558Z,977.52
2017-06-12T12:02:22.919Z,977.55
2017-06-12T12:03:25.279Z,977.54
2017-06-12T12:04:28.185Z,977.56
2017-06-12T12:05:30.559Z,977.51
2017-06-12T12:06:32.919Z,977.51
2017-06-12T12:07:35.275Z,977.50
2017-06-12T12:08:37.632Z,977.50
2017-06-12T12:09:40.699Z,977.50
2017-06-12T12:10:43.064Z,977.48
2017-06-12T12:11:45.408Z,977.48
2017-06-12T12:12:47.774Z,977.50
2017-06-12T12:13:50.147Z,977.48
2017-06-12T12:14:53.224Z,977.48
2017-06-12T12:15:55.560Z,977.48
2017-06-12T12:16:57.921Z,977.51
2017-06-12T12:18:00.281Z,977.52
2017-06-12T12:19:02.639Z,977.52
2017-06-12T12:20:05.550Z,977.54
2017-06-12T12:21:07.906Z,977.52
2017-06-12T12:22:10.266Z,977.47
2017-06-12T12:23:12.625Z,977.51
2017-06-12T12:24:14.986Z,977.52
2017-06-12T12:25:18.048Z,977.53
2017-06-12T12:26:20.409Z,977.55
2017-06-12T12:27:22.770Z,977.61
2017-06-12T12:28:25.125Z,977.63
2017-06-12T12:29:27.487Z,977.66
2017-06-12T12:30:30.396Z,977.60
2017-06-12T12:31:32.756Z,977.61
2017-06-12T12:32:35.115Z,977.65
2017-06-12T12:33:37.485Z,977.63
2017-06-12T12:34:39.844Z,977.66
2017-06-12T12:35:42.746Z,977.65
2017-06-12T12:36:45.116Z,977.66
2017-06-12T12:37:47.476Z,977.67
2017-06-12T12:38:49.829Z,977.67
2017-06-12T12:39:52.194Z,977.70
2017-06-12T12:40:55.154Z,977.77
2017-06-12T12:41:57.519Z,977.80
2017-06-12T12:42:59.875Z,977.78
2017-06-12T12:44:02.237Z,977.82
2017-06-12T12:45:04.595Z,977.86
2017-06-12T12:46:07.660Z,977.89
2017-06-12T12:47:10.024Z,977.91
2017-06-12T12:48:12.392Z,977.92
2017-06-12T12:49:14.753Z,977.95
2017-06-12T12:50:17.117Z,977.95
2017-06-12T12:51:20.196Z,977.98
2017-06-12T12:52:22.551Z,977.97
2017-06-12T12:53:24.917Z,978.00
2017-06-12T12:54:27.271Z,978.01
2017-06-12T12:55:29.633Z,977.97
2017-06-12T12:56:32.552Z,977.99
2017-06-12T12:57:34.910Z,977.95
2017-06-12T12:58:37.273Z,977.95
2017-06-12T12:59:39.634Z,977.99
2017-06-12T13:00:42.010Z,977.96